createdAt,value
2019-01-14T00:00:30.343Z,96285.73
2019-01-14T00:03:00.029Z,96286.75
2019-01-14T00:05:29.091Z,96307.30
2019-01-14T00:07:58.212Z,96291.90
2019-01-14T00:10:27.211Z,96304.27
2019-01-14T00:12:56.232Z,96302.92
2019-01-14T00:15:25.525Z,96322.61
2019-01-14T00:17:54.594Z,96322.34
2019-01-14T00:20:23.643Z,96324.89
2019-01-14T00:22:52.623Z,96332.89
2019-01-14T00:25:21.642Z,96334.96
2019-01-14T00:27:50.675Z,96335.50
2019-01-14T00:30:19.721Z,96357.42
2019-01-14T00:32:48.760Z,96336.93
2019-01-14T00:35:17.793Z,96355.89
2019-01-14T00:37:46.823Z,96371.98
2019-01-14T00:40:17.109Z,96375.43
2019-01-14T00:42:46.719Z,96362.33
2019-01-14T00:45:15.934Z,96376.60
2019-01-14T00:47:44.862Z,96393.58
2019-01-14T00:50:15.788Z,96393.52
2019-01-14T00:52:44.908Z,96395.30
2019-01-14T00:55:14.380Z,96406.48
2019-01-14T00:57:43.417Z,96405.93
2019-01-14T01:00:21.248Z,96400.51
2019-01-14T01:02:50.290Z,96408.89
2019-01-14T01:05:19.309Z,96410.60
2019-01-14T01:07:48.354Z,96408.70
2019-01-14T01:10:18.082Z,96412.27
2019-01-14T01:12:47.129Z,96412.50
2019-01-14T01:15:17.842Z,96403.15
2019-01-14T01:17:46.906Z,96425.08
2019-01-14T01:20:18.939Z,96415.53
2019-01-14T01:22:48.261Z,96415.26
2019-01-14T01:25:17.301Z,96411.53
2019-01-14T01:27:46.304Z,96412.55
2019-01-14T01:30:17.293Z,96417.48
2019-01-14T01:32:46.482Z,96412.81
2019-01-14T01:35:16.052Z,96414.56
2019-01-14T01:37:45.382Z,96422.33
2019-01-14T01:40:19.395Z,96418.52
2019-01-14T01:42:48.664Z,96414.21
2019-01-14T01:45:18.008Z,96427.98
2019-01-14T01:47:47.307Z,96424.03
2019-01-14T01:50:18.041Z,96424.19
2019-01-14T01:52:48.047Z,96427.48
2019-01-14T01:55:17.181Z,96431.99
2019-01-14T01:57:46.225Z,96425.39
2019-01-14T02:00:17.686Z,96423.80
2019-01-14T02:02:46.765Z,96431.99
2019-01-14T02:05:16.255Z,96435.05
2019-01-14T02:07:45.569Z,96441.14
2019-01-14T02:10:22.568Z,96442.00
2019-01-14T02:12:52.018Z,96442.28
2019-01-14T02:15:22.103Z,96441.38
2019-01-14T02:17:51.803Z,96447.67
2019-01-14T02:20:21.380Z,96450.74
2019-01-14T02:22:50.425Z,96456.25
2019-01-14T02:25:19.707Z,96452.30
2019-01-14T02:27:48.656Z,96448.22
2019-01-14T02:30:22.312Z,96460.95
2019-01-14T02:32:51.385Z,96467.54
2019-01-14T02:35:20.424Z,96458.30
2019-01-14T02:37:49.460Z,96462.49
2019-01-14T02:40:20.325Z,96446.86
2019-01-14T02:42:49.337Z,96463.73
2019-01-14T02:45:18.607Z,96462.65
2019-01-14T02:47:47.589Z,96444.75
2019-01-14T02:50:17.415Z,96460.87
2019-01-14T02:52:46.383Z,96436.09
2019-01-14T02:55:15.564Z,96465.69
2019-01-14T02:57:44.524Z,96471.73
2019-01-14T03:00:16.771Z,96476.94
2019-01-14T03:02:45.740Z,96468.05
2019-01-14T03:05:14.925Z,96472.05
2019-01-14T03:07:43.917Z,96467.59
2019-01-14T03:10:13.129Z,96478.02
2019-01-14T03:12:42.018Z,96476.20
2019-01-14T03:15:11.614Z,96485.71
2019-01-14T03:17:40.608Z,96482.92
2019-01-14T03:20:11.169Z,96469.37
2019-01-14T03:22:40.144Z,96497.31
2019-01-14T03:25:10.434Z,96500.30
2019-01-14T03:27:39.405Z,96506.17
2019-01-14T03:30:10.894Z,96500.35
2019-01-14T03:32:39.856Z,96494.80
2019-01-14T03:35:09.262Z,96526.16
2019-01-14T03:37:38.258Z,96517.82
2019-01-14T03:40:09.661Z,96531.37
2019-01-14T03:42:38.626Z,96516.50
2019-01-14T03:45:08.526Z,96531.14
2019-01-14T03:47:37.501Z,96538.14
2019-01-14T03:50:09.995Z,96551.42
2019-01-14T03:52:38.882Z,96552.71
2019-01-14T03:55:07.966Z,96548.41
2019-01-14T03:57:36.855Z,96549.56
2019-01-14T04:00:08.905Z,96550.30
2019-01-14T04:02:37.806Z,96556.63
2019-01-14T04:05:07.960Z,96561.35
2019-01-14T04:07:37.081Z,96550.98
2019-01-14T04:10:08.286Z,96571.12
2019-01-14T04:12:37.106Z,96576.83
2019-01-14T04:15:06.852Z,96586.35
2019-01-14T04:17:35.685Z,96569.42
2019-01-14T04:20:05.755Z,96591.84
2019-01-14T04:22:34.734Z,96601.44
2019-01-14T04:25:04.020Z,96596.30
2019-01-14T04:27:33.003Z,96596.53
2019-01-14T04:30:01.990Z,96602.78
2019-01-14T04:32:30.893Z,96615.47
2019-01-14T04:34:59.873Z,96610.70
2019-01-14T04:37:28.821Z,96616.48
2019-01-14T04:39:57.693Z,96634.72
2019-01-14T04:42:26.687Z,96632.81
2019-01-14T04:44:55.629Z,96630.53
2019-01-14T04:47:24.535Z,96634.82
2019-01-14T04:49:53.475Z,96633.95
2019-01-14T04:52:22.365Z,96637.33
2019-01-14T04:54:51.339Z,96646.80
2019-01-14T04:57:20.242Z,96634.75
2019-01-14T04:59:49.127Z,96655.31
2019-01-14T05:02:18.102Z,96639.75
2019-01-14T05:04:47.003Z,96660.37
2019-01-14T05:07:15.983Z,96661.38
2019-01-14T05:09:44.938Z,96672.61
2019-01-14T05:12:13.841Z,96673.47
2019-01-14T05:14:42.713Z,96686.00
2019-01-14T05:17:11.611Z,96679.20
2019-01-14T05:19:40.624Z,96689.91
2019-01-14T05:22:09.552Z,96693.77
2019-01-14T05:24:38.536Z,96692.67
2019-01-14T05:27:07.574Z,96694.58
2019-01-14T05:29:36.434Z,96709.16
2019-01-14T05:32:05.993Z,96711.16
2019-01-14T05:34:34.815Z,96715.40
2019-01-14T05:37:03.730Z,96719.59
2019-01-14T05:39:32.641Z,96721.05
2019-01-14T05:42:01.561Z,96725.55
2019-01-14T05:44:30.433Z,96738.07
2019-01-14T05:46:59.443Z,96737.48
2019-01-14T05:49:28.340Z,96749.91
2019-01-14T05:51:57.282Z,96745.80
2019-01-14T05:54:26.245Z,96746.80
2019-01-14T05:56:55.146Z,96742.92
2019-01-14T05:59:24.093Z,96746.45
2019-01-14T06:01:53.077Z,96749.36
2019-01-14T06:04:22.061Z,96752.31
2019-01-14T06:06:51.039Z,96743.08
2019-01-14T06:09:19.939Z,96753.32
2019-01-14T06:11:48.885Z,96751.94
2019-01-14T06:14:17.710Z,96766.44
2019-01-14T06:16:46.660Z,96774.92
2019-01-14T06:19:15.902Z,96779.32
2019-01-14T06:21:44.877Z,96777.81
2019-01-14T06:24:13.847Z,96780.83
2019-01-14T06:26:42.825Z,96785.29
2019-01-14T06:29:11.809Z,96779.70
2019-01-14T06:31:40.776Z,96804.49
2019-01-14T06:34:09.776Z,96807.19
2019-01-14T06:36:38.746Z,96805.87
2019-01-14T06:39:10.280Z,96804.71
2019-01-14T06:41:39.280Z,96832.17
2019-01-14T06:44:08.189Z,96826.41
2019-01-14T06:46:37.150Z,96827.28
2019-01-14T06:49:06.124Z,96834.09
2019-01-14T06:51:34.945Z,96842.72
2019-01-14T06:54:03.843Z,96840.09
2019-01-14T06:56:32.821Z,96842.62
2019-01-14T06:59:01.870Z,96861.73
2019-01-14T07:01:30.812Z,96860.31
2019-01-14T07:03:59.817Z,96866.91
2019-01-14T07:06:28.799Z,96876.11
2019-01-14T07:08:57.701Z,96887.36
2019-01-14T07:11:26.874Z,96885.73
2019-01-14T07:13:55.841Z,96892.42
2019-01-14T07:16:24.798Z,96900.12
2019-01-14T07:18:53.701Z,96910.94
2019-01-14T07:21:22.682Z,96900.25
2019-01-14T07:23:51.652Z,96914.58
2019-01-14T07:26:20.916Z,96920.16
2019-01-14T07:28:49.912Z,96926.11
2019-01-14T07:31:18.875Z,96931.66
2019-01-14T07:33:47.864Z,96932.12
2019-01-14T07:36:16.845Z,96944.16
2019-01-14T07:38:45.812Z,96953.55
2019-01-14T07:41:14.735Z,96961.24
2019-01-14T07:43:43.626Z,96967.98
2019-01-14T07:46:12.606Z,96975.91
2019-01-14T07:48:41.579Z,96978.17
2019-01-14T07:51:10.571Z,96992.67
2019-01-14T07:53:39.465Z,96989.21
2019-01-14T07:56:09.025Z,96983.84
2019-01-14T07:58:37.899Z,97002.45
2019-01-14T08:01:06.868Z,97005.47
2019-01-14T08:03:35.853Z,97019.05
2019-01-14T08:06:04.826Z,97017.45
2019-01-14T08:08:33.645Z,97039.82
2019-01-14T08:11:02.623Z,97038.47
2019-01-14T08:13:31.652Z,97043.30
2019-01-14T08:16:00.555Z,97053.27
2019-01-14T08:18:29.514Z,97058.50
2019-01-14T08:20:58.560Z,97057.33
2019-01-14T08:23:27.454Z,97066.58
2019-01-14T08:25:56.358Z,97064.88
2019-01-14T08:28:25.338Z,97074.53
2019-01-14T08:30:54.242Z,97071.53
2019-01-14T08:33:23.052Z,97066.27
2019-01-14T08:35:52.311Z,97065.10
2019-01-14T08:38:21.515Z,97066.02
2019-01-14T08:40:50.621Z,97074.01
2019-01-14T08:43:19.519Z,97073.98
2019-01-14T08:45:48.878Z,97083.39
2019-01-14T08:48:17.839Z,97086.81
2019-01-14T08:50:46.819Z,97091.28
2019-01-14T08:53:15.637Z,97094.77
2019-01-14T08:55:44.666Z,97094.58
2019-01-14T08:58:13.570Z,97100.84
2019-01-14T09:00:42.476Z,97101.73
2019-01-14T09:03:11.494Z,97105.58
2019-01-14T09:05:40.484Z,97115.08
2019-01-14T09:08:09.437Z,97113.44
2019-01-14T09:10:38.459Z,97118.92
2019-01-14T09:13:07.306Z,97121.50
2019-01-14T09:15:36.195Z,97118.14
2019-01-14T09:18:05.251Z,97131.25
2019-01-14T09:20:34.161Z,97123.43
2019-01-14T09:23:03.175Z,97140.63
2019-01-14T09:25:32.088Z,97145.61
2019-01-14T09:28:00.927Z,97147.78
2019-01-14T09:30:29.831Z,97147.22
2019-01-14T09:32:58.817Z,97155.11
2019-01-14T09:35:27.807Z,97153.22
2019-01-14T09:37:56.696Z,97147.44
2019-01-14T09:40:25.928Z,97147.42
2019-01-14T09:42:54.997Z,97149.03
2019-01-14T09:45:23.980Z,97157.25
2019-01-14T09:47:53.005Z,97150.70
2019-01-14T09:50:22.004Z,97160.38
2019-01-14T09:52:50.992Z,97152.41
2019-01-14T09:55:20.650Z,97161.62
2019-01-14T09:57:49.849Z,97156.63
2019-01-14T10:00:18.732Z,97147.03
2019-01-14T10:02:47.768Z,97152.60
2019-01-14T10:05:18.452Z,97155.31
2019-01-14T10:07:47.929Z,97158.34
2019-01-14T10:10:17.900Z,97164.49
2019-01-14T10:12:47.142Z,97166.70
2019-01-14T10:15:18.287Z,97156.35
2019-01-14T10:17:49.222Z,97160.05
2019-01-14T10:20:18.192Z,97166.05
2019-01-14T10:22:47.184Z,97164.49
2019-01-14T10:25:16.097Z,97160.53
2019-01-14T10:27:45.085Z,97155.36
2019-01-14T10:30:16.498Z,97145.34
2019-01-14T10:32:45.452Z,97149.58
2019-01-14T10:35:14.830Z,97155.31
2019-01-14T10:37:44.150Z,97158.17
2019-01-14T10:40:14.328Z,97150.80
2019-01-14T10:42:43.364Z,97153.32
2019-01-14T10:45:15.299Z,97147.77
2019-01-14T10:47:44.324Z,97144.55
2019-01-14T10:50:13.576Z,97146.58
2019-01-14T10:52:42.878Z,97133.52
2019-01-14T10:55:13.223Z,97143.97
2019-01-14T10:57:42.782Z,97137.36
2019-01-14T11:00:17.739Z,97140.63
2019-01-14T11:02:48.118Z,97151.58
2019-01-14T11:05:21.486Z,97145.56
2019-01-14T11:07:50.475Z,97147.17
2019-01-14T11:10:19.413Z,97138.77
2019-01-14T11:12:48.353Z,97145.11
2019-01-14T11:15:17.415Z,97141.17
2019-01-14T11:17:46.426Z,97136.61
2019-01-14T11:20:24.374Z,97130.53
2019-01-14T11:22:53.385Z,97138.48
2019-01-14T11:25:22.410Z,97136.80
2019-01-14T11:27:51.342Z,97144.29
2019-01-14T11:30:26.178Z,97153.14
2019-01-14T11:32:55.553Z,97152.11
2019-01-14T11:35:24.573Z,97147.69
2019-01-14T11:37:53.658Z,97145.70
2019-01-14T11:40:27.778Z,97149.62
2019-01-14T11:42:56.757Z,97150.50
2019-01-14T11:45:25.840Z,97148.52
2019-01-14T11:47:54.828Z,97143.90
2019-01-14T11:50:23.885Z,97143.06
2019-01-14T11:52:52.946Z,97134.30
2019-01-14T11:55:21.869Z,97127.30
2019-01-14T11:57:50.900Z,97131.64
2019-01-14T12:00:22.473Z,97126.09
2019-01-14T12:02:51.950Z,97124.14
2019-01-14T12:05:21.059Z,97128.70
2019-01-14T12:07:50.334Z,97130.09
2019-01-14T12:10:19.522Z,97130.36
2019-01-14T12:12:48.687Z,97133.79
2019-01-14T12:15:20.536Z,97125.53
2019-01-14T12:17:49.444Z,97138.52
2019-01-14T12:20:18.524Z,97136.06
2019-01-14T12:22:47.779Z,97139.32
2019-01-14T12:25:16.843Z,97137.75
2019-01-14T12:27:45.802Z,97138.80
2019-01-14T12:30:24.047Z,97127.41
2019-01-14T12:32:53.010Z,97130.47
2019-01-14T12:35:22.126Z,97130.18
2019-01-14T12:37:51.164Z,97113.92
2019-01-14T12:40:20.259Z,97122.69
2019-01-14T12:42:49.354Z,97126.61
2019-01-14T12:45:18.636Z,97115.25
2019-01-14T12:47:47.959Z,97117.42
2019-01-14T12:50:17.275Z,97114.81
2019-01-14T12:52:46.278Z,97117.92
2019-01-14T12:55:15.855Z,97115.31
2019-01-14T12:57:45.101Z,97107.76
2019-01-14T13:00:19.592Z,97113.36
2019-01-14T13:02:48.671Z,97120.06
2019-01-14T13:05:18.509Z,97122.66
2019-01-14T13:07:47.544Z,97120.78
2019-01-14T13:10:16.597Z,97123.62
2019-01-14T13:12:45.602Z,97127.05
2019-01-14T13:15:16.859Z,97128.63
2019-01-14T13:17:45.950Z,97121.03
2019-01-14T13:20:15.440Z,97131.27
2019-01-14T13:22:44.527Z,97132.90
2019-01-14T13:25:13.803Z,97120.98
2019-01-14T13:27:43.047Z,97132.22
2019-01-14T13:30:23.369Z,97121.02
2019-01-14T13:32:52.505Z,97142.64
2019-01-14T13:35:21.548Z,97123.95
2019-01-14T13:37:51.011Z,97134.47
2019-01-14T13:40:20.078Z,97127.23
2019-01-14T13:42:49.348Z,97137.52
2019-01-14T13:45:19.641Z,97133.39
2019-01-14T13:47:49.036Z,97134.06
2019-01-14T13:50:20.028Z,97140.95
2019-01-14T13:52:49.399Z,97143.64
2019-01-14T13:55:19.094Z,97131.91
2019-01-14T13:57:48.152Z,97139.28
2019-01-14T14:00:22.175Z,97123.94
2019-01-14T14:02:51.428Z,97138.31
2019-01-14T14:05:20.537Z,97140.46
2019-01-14T14:07:49.608Z,97135.17
2019-01-14T14:10:20.941Z,97139.19
2019-01-14T14:12:49.967Z,97138.69
2019-01-14T14:15:19.196Z,97157.03
2019-01-14T14:17:48.525Z,97154.73
2019-01-14T14:20:17.832Z,97169.22
2019-01-14T14:22:47.051Z,97172.48
2019-01-14T14:25:16.147Z,97183.19
2019-01-14T14:27:45.264Z,97208.31
2019-01-14T14:30:27.668Z,97220.72
2019-01-14T14:32:56.648Z,97219.52
2019-01-14T14:35:25.776Z,97232.77
2019-01-14T14:38:00.969Z,97236.96
2019-01-14T14:40:25.644Z,97248.90
2019-01-14T14:42:54.968Z,97248.78
2019-01-14T14:45:24.039Z,97260.25
2019-01-14T14:47:53.072Z,97256.25
2019-01-14T14:50:22.192Z,97260.59
2019-01-14T14:52:51.187Z,97254.27
2019-01-14T14:55:20.352Z,97264.08
2019-01-14T14:57:49.422Z,97268.42
2019-01-14T15:00:20.287Z,97279.16
2019-01-14T15:02:49.297Z,97273.80
2019-01-14T15:05:18.599Z,97278.66
2019-01-14T15:07:47.688Z,97285.94
2019-01-14T15:10:18.283Z,97282.33
2019-01-14T15:12:47.482Z,97296.22
2019-01-14T15:15:18.228Z,97301.84
2019-01-14T15:17:47.307Z,97308.22
2019-01-14T15:20:17.503Z,97315.12
2019-01-14T15:22:46.581Z,97319.47
2019-01-14T15:25:15.626Z,97319.11
2019-01-14T15:27:44.649Z,97331.22
2019-01-14T15:30:26.004Z,97328.72
2019-01-14T15:32:55.021Z,97350.95
2019-01-14T15:35:24.104Z,97347.43
2019-01-14T15:37:53.196Z,97349.20
2019-01-14T15:40:22.814Z,97344.14
2019-01-14T15:42:51.894Z,97356.56
2019-01-14T15:45:21.889Z,97357.09
2019-01-14T15:47:51.148Z,97376.73
2019-01-14T15:50:20.276Z,97369.28
2019-01-14T15:52:49.319Z,97386.25
2019-01-14T15:55:20.631Z,97390.33
2019-01-14T15:57:49.650Z,97388.30
2019-01-14T16:00:18.881Z,97396.29
2019-01-14T16:02:48.197Z,97402.86
2019-01-14T16:05:17.501Z,97405.36
2019-01-14T16:07:46.474Z,97405.80
2019-01-14T16:10:17.937Z,97417.08
2019-01-14T16:12:47.032Z,97420.64
2019-01-14T16:15:16.206Z,97420.50
2019-01-14T16:17:45.446Z,97436.09
2019-01-14T16:20:16.146Z,97444.17
2019-01-14T16:22:45.073Z,97448.20
2019-01-14T16:25:14.039Z,97452.50
2019-01-14T16:27:42.960Z,97457.76
2019-01-14T16:30:23.391Z,97472.60
2019-01-14T16:32:52.304Z,97478.43
2019-01-14T16:35:21.261Z,97484.80
2019-01-14T16:37:50.271Z,97489.72
2019-01-14T16:40:19.363Z,97485.36
2019-01-14T16:42:48.331Z,97492.02
2019-01-14T16:45:19.785Z,97499.59
2019-01-14T16:47:48.780Z,97498.18
2019-01-14T16:50:18.152Z,97520.02
2019-01-14T16:52:47.137Z,97513.83
2019-01-14T16:55:18.463Z,97518.36
2019-01-14T16:57:47.428Z,97524.91
2019-01-14T17:00:17.648Z,97530.31
2019-01-14T17:02:46.823Z,97532.99
2019-01-14T17:05:16.293Z,97524.03
2019-01-14T17:07:45.500Z,97529.42
2019-01-14T17:10:15.256Z,97532.01
2019-01-14T17:12:44.256Z,97539.03
2019-01-14T17:15:13.789Z,97545.22
2019-01-14T17:17:42.746Z,97554.87
2019-01-14T17:20:15.120Z,97552.41
2019-01-14T17:22:44.112Z,97561.32
2019-01-14T17:25:13.665Z,97566.61
2019-01-14T17:27:42.650Z,97570.17
2019-01-14T17:30:13.363Z,97577.58
2019-01-14T17:32:42.304Z,97578.32
2019-01-14T17:35:11.398Z,97586.17
2019-01-14T17:37:40.401Z,97600.17
2019-01-14T17:40:11.877Z,97599.81
2019-01-14T17:42:40.829Z,97610.86
2019-01-14T17:45:10.597Z,97606.11
2019-01-14T17:47:39.655Z,97617.34
2019-01-14T17:50:11.547Z,97612.14
2019-01-14T17:52:40.544Z,97618.62
2019-01-14T17:55:09.784Z,97625.48
2019-01-14T17:57:38.753Z,97629.81
2019-01-14T18:00:11.616Z,97634.56
2019-01-14T18:02:40.577Z,97635.52
2019-01-14T18:05:09.528Z,97639.72
2019-01-14T18:07:38.430Z,97654.42
2019-01-14T18:10:08.710Z,97646.27
2019-01-14T18:12:37.609Z,97659.94
2019-01-14T18:15:07.606Z,97667.11
2019-01-14T18:17:36.526Z,97670.23
2019-01-14T18:20:07.734Z,97675.80
2019-01-14T18:22:36.629Z,97672.18
2019-01-14T18:25:06.794Z,97685.67
2019-01-14T18:27:35.752Z,97689.06
2019-01-14T18:30:07.768Z,97688.94
2019-01-14T18:32:36.665Z,97692.79
2019-01-14T18:35:06.561Z,97689.80
2019-01-14T18:37:35.537Z,97707.65
2019-01-14T18:40:05.717Z,97711.37
2019-01-14T18:42:34.541Z,97717.22
2019-01-14T18:45:04.672Z,97721.80
2019-01-14T18:47:33.568Z,97718.03
2019-01-14T18:50:02.581Z,97726.02
2019-01-14T18:52:31.503Z,97729.58
2019-01-14T18:55:00.331Z,97735.70
2019-01-14T18:57:29.402Z,97744.23
2019-01-14T18:59:58.318Z,97737.48
2019-01-14T19:02:27.307Z,97744.59
2019-01-14T19:04:56.325Z,97752.94
2019-01-14T19:07:25.389Z,97753.60
2019-01-14T19:09:54.232Z,97755.09
2019-01-14T19:12:23.200Z,97768.70
2019-01-14T19:14:52.179Z,97777.52
2019-01-14T19:17:21.133Z,97778.64
2019-01-14T19:19:50.040Z,97783.23
2019-01-14T19:22:19.042Z,97790.27
2019-01-14T19:24:47.933Z,97793.84
2019-01-14T19:27:48.793Z,97791.58
2019-01-14T19:30:18.839Z,97804.00
2019-01-14T19:32:47.745Z,97811.86
2019-01-14T19:35:16.712Z,97810.94
2019-01-14T19:37:45.698Z,97819.99
2019-01-14T19:40:17.457Z,97824.87
2019-01-14T19:42:46.748Z,97832.75
2019-01-14T19:45:17.328Z,97832.58
2019-01-14T19:47:46.277Z,97836.18
2019-01-14T19:50:17.872Z,97847.72
2019-01-14T19:52:47.051Z,97847.43
2019-01-14T19:55:16.019Z,97858.23
2019-01-14T19:57:44.991Z,97856.73
2019-01-14T20:00:25.497Z,97865.09
2019-01-14T20:02:54.488Z,97871.86
2019-01-14T20:05:23.427Z,97882.89
2019-01-14T20:07:52.698Z,97886.55
2019-01-14T20:10:21.670Z,97883.28
2019-01-14T20:12:50.844Z,97883.94
2019-01-14T20:15:20.102Z,97893.12
2019-01-14T20:17:49.078Z,97893.06
2019-01-14T20:20:18.378Z,97905.56
2019-01-14T20:22:47.593Z,97908.89
2019-01-14T20:25:16.676Z,97901.41
2019-01-14T20:27:45.775Z,97901.31
2019-01-14T20:30:22.779Z,97910.20
2019-01-14T20:32:52.009Z,97905.52
2019-01-14T20:35:21.067Z,97914.71
2019-01-14T20:37:50.160Z,97913.25
2019-01-14T20:40:19.212Z,97919.87
2019-01-14T20:42:48.219Z,97922.97
2019-01-14T20:45:17.429Z,97926.19
2019-01-14T20:47:46.533Z,97922.83
2019-01-14T20:50:17.429Z,97938.05
2019-01-14T20:52:46.553Z,97928.37
2019-01-14T20:55:15.649Z,97935.11
2019-01-14T20:57:45.281Z,97932.89
2019-01-14T21:00:17.428Z,97938.88
2019-01-14T21:02:46.424Z,97942.33
2019-01-14T21:05:15.524Z,97937.76
2019-01-14T21:07:44.550Z,97936.05
2019-01-14T21:10:14.315Z,97942.06
2019-01-14T21:12:43.304Z,97950.44
2019-01-14T21:15:12.603Z,97935.66
2019-01-14T21:17:41.742Z,97946.55
2019-01-14T21:20:14.520Z,97940.29
2019-01-14T21:22:43.538Z,97943.92
2019-01-14T21:25:12.678Z,97942.55
2019-01-14T21:27:41.715Z,97952.23
2019-01-14T21:30:13.717Z,97957.85
2019-01-14T21:32:42.643Z,97953.75
2019-01-14T21:35:11.628Z,97950.50
2019-01-14T21:37:40.759Z,97952.14
2019-01-14T21:40:10.501Z,97953.69
2019-01-14T21:42:39.462Z,97967.97
2019-01-14T21:45:10.082Z,97965.98
2019-01-14T21:47:39.043Z,97967.30
2019-01-14T21:50:10.906Z,97967.02
2019-01-14T21:52:39.880Z,97973.77
2019-01-14T21:55:10.726Z,97981.84
2019-01-14T21:57:39.554Z,97986.00
2019-01-14T22:00:11.948Z,97988.16
2019-01-14T22:02:41.008Z,97995.73
2019-01-14T22:05:10.018Z,97999.06
2019-01-14T22:07:38.943Z,98001.52
2019-01-14T22:10:11.059Z,98002.03
2019-01-14T22:12:39.902Z,97996.98
2019-01-14T22:15:09.549Z,98000.12
2019-01-14T22:17:38.577Z,98007.67
2019-01-14T22:20:10.952Z,98009.64
2019-01-14T22:22:39.869Z,98015.89
2019-01-14T22:25:09.104Z,98016.55
2019-01-14T22:27:38.081Z,98015.86
2019-01-14T22:30:10.421Z,98013.59
2019-01-14T22:32:39.207Z,98018.34
2019-01-14T22:35:08.167Z,98012.73
2019-01-14T22:37:37.060Z,98023.75
2019-01-14T22:40:06.669Z,98030.94
2019-01-14T22:42:35.642Z,98033.75
2019-01-14T22:45:05.915Z,98037.83
2019-01-14T22:47:34.925Z,98039.63
2019-01-14T22:50:06.189Z,98039.80
2019-01-14T22:52:35.205Z,98040.28
2019-01-14T22:55:04.476Z,98050.27
2019-01-14T22:57:33.324Z,98048.45
2019-01-14T23:00:02.462Z,98049.94
2019-01-14T23:02:31.432Z,98045.51
2019-01-14T23:05:00.410Z,98048.63
2019-01-14T23:07:29.433Z,98046.34
2019-01-14T23:09:58.249Z,98052.42
2019-01-14T23:12:27.149Z,98060.95
2019-01-14T23:14:55.989Z,98058.64
2019-01-14T23:17:25.064Z,98063.72
2019-01-14T23:19:54.005Z,98055.02
2019-01-14T23:22:22.984Z,98067.32
2019-01-14T23:24:51.804Z,98069.64
2019-01-14T23:27:20.687Z,98067.35
2019-01-14T23:29:49.519Z,98070.30
2019-01-14T23:32:18.485Z,98075.69
2019-01-14T23:34:47.395Z,98086.39
2019-01-14T23:37:16.346Z,98080.99
2019-01-14T23:39:45.338Z,98085.10
2019-01-14T23:42:14.386Z,98071.96
2019-01-14T23:44:43.384Z,98081.66
2019-01-14T23:47:12.396Z,98084.28
2019-01-14T23:49:41.400Z,98082.14
2019-01-14T23:52:10.405Z,98090.34
2019-01-14T23:54:39.488Z,98091.65
2019-01-14T23:57:08.368Z,98093.80
